EDT,Max TemperatureF,Mean TemperatureF,Min TemperatureF,Max Dew PointF,MeanDew PointF,Min DewpointF,Max Humidity, Mean Humidity, Min Humidity, Max Sea Level PressureIn, Mean Sea Level PressureIn, Min Sea Level PressureIn, Max VisibilityMiles, Mean VisibilityMiles, Min VisibilityMiles, Max Wind SpeedMPH, Mean Wind SpeedMPH, Max Gust SpeedMPH,PrecipitationIn, CloudCover, Events, WindDirDegrees
2012-9-1,93,81,69,71,67,64,90,66,41,30.05,30.00,29.97,10,10,6,15,5,22,0.00,0,,308
2012-9-2,80,75,70,73,70,68,97,86,74,30.08,30.05,30.02,9,6,1,12,5,23,0.01,6,,104
2012-9-3,79,75,71,74,71,67,100,87,74,30.11,30.08,30.06,10,8,1,20,8,33,1.18,7,Rain,104
2012-9-4,83,78,72,75,74,71,94,82,69,30.07,30.00,29.90,10,7,0,16,7,37,0.97,6,Fog-Rain,171
2012-9-5,87,79,70,74,72,71,94,78,61,29.89,29.84,29.78,10,8,0,24,8,31,0.41,5,Fog-Rain-Thunderstorm,242
2012-9-6,83,76,68,72,69,64,100,79,58,29.94,29.89,29.85,10,7,0,9,2,18,0.02,3,Fog-Rain,230
2012-9-7,85,75,65,71,67,64,93,72,51,29.97,29.93,29.86,10,8,3,13,5,20,0.00,0,,181
2012-9-8,83,74,65,73,71,62,94,84,74,29.90,29.78,29.63,10,10,3,25,12,39,0.31,6,Rain,190
2012-9-9,79,70,60,63,59,51,93,66,39,29.90,29.85,29.80,10,10,10,14,5,22,0.01,3,Rain,313
2012-9-10,76,65,53,55,49,45,86,61,35,30.16,30.01,29.91,10,10,10,20,10,24,0.00,1,,336
2012-9-11,75,62,48,53,47,43,86,60,33,30.31,30.26,30.17,10,10,10,15,4,18,0.00,0,,334
2012-9-12,77,63,49,56,52,46,89,64,38,30.39,30.35,30.31,10,10,9,12,3,16,0.00,0,,162
2012-9-13,77,65,52,59,55,50,93,72,50,30.40,30.35,30.30,10,10,10,10,2,18,0.00,0,,123
2012-9-14,77,65,53,62,57,50,93,74,54,30.30,30.22,30.12,10,10,10,13,4,17,0.00,0,,178
2012-9-15,76,64,52,61,53,48,93,66,38,30.16,30.12,30.08,10,10,10,21,8,26,0.00,1,,319
2012-9-16,76,64,51,51,48,39,86,57,27,30.16,30.11,30.06,10,10,10,17,4,22,0.00,1,,260
2012-9-17,75,61,47,62,51,43,89,62,35,30.15,30.10,30.04,10,10,10,13,5,20,0.00,1,,179
2012-9-18,79,73,67,72,67,63,90,81,71,30.02,29.83,29.68,10,9,2,44,16,54,0.24,7,Rain,182
2012-9-19,72,62,52,66,54,44,93,67,40,30.18,29.97,29.78,10,10,10,23,8,29,0.00,4,,317
2012-9-20,73,61,48,57,50,43,93,67,41,30.19,30.14,30.10,10,10,10,9,2,14,0.00,0,,106
2012-9-21,74,64,54,60,56,52,93,75,57,30.11,30.07,30.02,10,10,10,14,4,17,0.00,2,,82
2012-9-22,78,65,52,67,61,49,93,78,62,30.01,29.91,29.83,10,9,2,18,8,23,0.21,2,Rain,207
2012-9-23,70,60,49,63,47,40,87,60,33,30.14,30.05,29.91,10,10,6,18,9,24,0.00,2,Rain,312
2012-9-24,69,56,43,46,40,35,89,60,30,30.21,30.16,30.13,10,10,10,17,6,23,0.00,0,,308
2012-9-25,73,58,42,53,47,38,89,64,38,30.23,30.20,30.17,10,10,10,20,8,28,0.00,0,,201
2012-9-26,81,73,64,64,60,54,79,65,51,30.17,30.11,30.05,10,10,10,17,10,24,T,2,Rain,209
2012-9-27,77,71,64,65,63,61,93,79,64,30.19,30.14,30.08,10,10,5,18,5,41,0.00,3,,220
2012-9-28,81,73,64,68,66,61,100,77,54,30.13,30.04,29.95,10,9,6,15,7,21,0.07,5,Rain,181
2012-9-29,68,61,54,61,54,50,87,73,58,29.96,29.93,29.90,10,10,6,14,6,16,0.01,5,Rain,291
2012-9-30,71,61,51,52,48,42,89,62,35,29.89,29.86,29.81,10,10,10,16,6,25,0.07,3,Rain,279